Time,TemperatureF,DewpointF,PressureIn,WindDirection,WindDirectionDegrees,WindSpeedMPH,WindSpeedGustMPH,Humidity,HourlyPrecipIn,Conditions,Clouds,dailyrainin,SoftwareType,DateUTC
2013-10-07 00:03:00,74.2,22.0,30.15,SE,142,0.0,3.0,14,0.00,,---,0.00,VWS V14.01,2013-10-07 07:03:00,
2013-10-07 00:08:00,74.0,23.5,30.14,ENE,78,1.0,4.0,15,0.00,,---,0.00,VWS V14.01,2013-10-07 07:08:00,
2013-10-07 00:13:00,74.4,22.1,30.14,East,91,0.0,1.0,14,0.00,,---,0.00,VWS V14.01,2013-10-07 07:13:00,
2013-10-07 00:18:00,74.8,22.5,30.14,ESE,108,0.0,1.0,14,0.00,,---,0.00,VWS V14.01,2013-10-07 07:18:00,
2013-10-07 00:23:00,74.6,22.3,30.14,ESE,122,4.0,5.0,14,0.00,,---,0.00,VWS V14.01,2013-10-07 07:23:00,
2013-10-07 00:28:00,74.2,22.0,30.14,ESE,105,0.0,7.0,14,0.00,,---,0.00,VWS V14.01,2013-10-07 07:28:00,
2013-10-07 00:33:00,74.0,21.8,30.14,ESE,115,0.0,3.0,14,0.00,,---,0.00,VWS V14.01,2013-10-07 07:33:00,
2013-10-07 00:38:00,74.2,22.0,30.14,East,90,1.0,8.0,14,0.00,,---,0.00,VWS V14.01,2013-10-07 07:38:00,
2013-10-07 00:43:00,74.4,22.1,30.14,ESE,115,1.0,10.0,14,0.00,,---,0.00,VWS V14.01,2013-10-07 07:43:00,
2013-10-07 00:48:00,74.2,22.0,30.15,East,98,2.0,7.0,14,0.00,,---,0.00,VWS V14.01,2013-10-07 07:48:00,
2013-10-07 00:53:00,74.3,22.1,30.15,East,100,0.0,5.0,14,0.00,,---,0.00,VWS V14.01,2013-10-07 07:53:00,
2013-10-07 00:58:00,74.9,22.5,30.15,ESE,103,0.0,7.0,14,0.00,,---,0.00,VWS V14.01,2013-10-07 07:58:00,
2013-10-07 01:03:00,75.4,21.2,30.15,East,95,0.0,9.0,13,0.00,,---,0.00,VWS V14.01,2013-10-07 08:03:00,
2013-10-07 01:08:00,75.7,21.4,30.15,SE,138,0.0,10.0,13,0.00,,---,0.00,VWS V14.01,2013-10-07 08:08:00,
2013-10-07 01:13:00,75.8,21.5,30.15,East,88,0.0,3.0,13,0.00,,---,0.00,VWS V14.01,2013-10-07 08:13:00,
2013-10-07 01:18:00,75.8,21.5,30.15,ESE,120,0.0,4.0,13,0.00,,---,0.00,VWS V14.01,2013-10-07 08:18:00,
2013-10-07 01:23:00,75.7,21.4,30.15,East,98,0.0,1.0,13,0.00,,---,0.00,VWS V14.01,2013-10-07 08:23:00,
2013-10-07 01:28:00,75.1,22.7,30.15,East,98,0.0,0.0,14,0.00,,---,0.00,VWS V14.01,2013-10-07 08:28:00,
2013-10-07 01:33:00,73.9,23.4,30.15,East,98,0.0,0.0,15,0.00,,---,0.00,VWS V14.01,2013-10-07 08:33:00,
2013-10-07 01:38:00,72.8,24.0,30.14,East,98,0.0,0.0,16,0.00,,---,0.00,VWS V14.01,2013-10-07 08:38:00,
2013-10-07 01:43:00,71.6,25.9,30.14,East,98,0.0,0.0,18,0.00,,---,0.00,VWS V14.01,2013-10-07 08:43:00,
2013-10-07 01:48:00,69.9,24.5,30.14,East,98,0.0,0.0,18,0.00,,---,0.00,VWS V14.01,2013-10-07 08:48:00,
2013-10-07 01:53:00,68.5,24.6,30.14,East,98,0.0,0.0,19,0.00,,---,0.00,VWS V14.01,2013-10-07 08:53:00,
2013-10-07 01:58:00,67.5,25.0,30.15,ESE,115,0.0,1.0,20,0.00,,---,0.00,VWS V14.01,2013-10-07 08:58:00,
2013-10-07 02:03:00,67.5,23.8,30.14,East,101,0.0,0.0,19,0.00,,---,0.00,VWS V14.01,2013-10-07 09:03:00,
2013-10-07 02:08:00,67.6,23.9,30.14,ESE,103,0.0,0.0,19,0.00,,---,0.00,VWS V14.01,2013-10-07 09:08:00,
2013-10-07 02:13:00,67.2,22.3,30.14,ESE,103,0.0,0.0,18,0.00,,---,0.00,VWS V14.01,2013-10-07 09:13:00,
2013-10-07 02:18:00,66.7,24.4,30.14,SSE,163,0.0,0.0,20,0.00,,---,0.00,VWS V14.01,2013-10-07 09:18:00,
2013-10-07 02:23:00,65.9,22.5,30.14,SSE,163,0.0,0.0,19,0.00,,---,0.00,VWS V14.01,2013-10-07 09:23:00,
2013-10-07 02:28:00,65.2,24.3,30.14,ESE,111,0.0,0.0,21,0.00,,---,0.00,VWS V14.01,2013-10-07 09:28:00,
2013-10-07 02:33:00,64.8,25.1,30.14,NE,56,1.0,1.0,22,0.00,,---,0.00,VWS V14.01,2013-10-07 09:33:00,
2013-10-07 02:38:00,64.6,26.0,30.13,NE,39,0.0,0.0,23,0.00,,---,0.00,VWS V14.01,2013-10-07 09:38:00,
2013-10-07 02:43:00,64.2,28.6,30.13,NE,39,0.0,0.0,26,0.00,,---,0.00,VWS V14.01,2013-10-07 09:43:00,
2013-10-07 02:48:00,63.4,27.0,30.13,NE,42,1.0,1.0,25,0.00,,---,0.00,VWS V14.01,2013-10-07 09:48:00,
2013-10-07 02:53:00,62.1,25.9,30.13,East,101,0.0,0.0,25,0.00,,---,0.00,VWS V14.01,2013-10-07 09:53:00,
2013-10-07 02:58:00,61.2,26.1,30.13,East,101,0.0,0.0,26,0.00,,---,0.00,VWS V14.01,2013-10-07 09:58:00,
2013-10-07 03:03:00,60.7,25.6,30.13,ENE,61,0.0,1.0,26,0.00,,---,0.00,VWS V14.01,2013-10-07 10:03:00,
2013-10-07 03:08:00,60.8,27.5,30.13,ENE,59,0.0,1.0,28,0.00,,---,0.00,VWS V14.01,2013-10-07 10:08:00,
2013-10-07 03:13:00,60.7,26.5,30.13,ENE,59,0.0,0.0,27,0.00,,---,0.00,VWS V14.01,2013-10-07 10:13:00,
2013-10-07 03:18:00,60.7,26.5,30.12,ENE,59,0.0,0.0,27,0.00,,---,0.00,VWS V14.01,2013-10-07 10:18:00,
2013-10-07 03:23:00,60.5,28.9,30.12,ENE,59,0.0,0.0,30,0.00,,---,0.00,VWS V14.01,2013-10-07 10:23:00,
2013-10-07 03:28:00,60.1,27.8,30.12,ENE,59,0.0,0.0,29,0.00,,---,0.00,VWS V14.01,2013-10-07 10:28:00,
2013-10-07 03:33:00,59.4,25.4,30.12,SSW,195,0.0,2.0,27,0.00,,---,0.00,VWS V14.01,2013-10-07 10:33:00,
2013-10-07 03:38:00,58.9,25.0,30.12,SSW,195,0.0,0.0,27,0.00,,---,0.00,VWS V14.01,2013-10-07 10:38:00,
2013-10-07 03:43:00,58.5,25.5,30.12,SSW,195,0.0,1.0,28,0.00,,---,0.00,VWS V14.01,2013-10-07 10:43:00,
2013-10-07 03:48:00,58.6,25.6,30.12,ESE,118,0.0,0.0,28,0.00,,---,0.00,VWS V14.01,2013-10-07 10:48:00,
2013-10-07 03:53:00,58.7,27.4,30.12,ESE,105,0.0,0.0,30,0.00,,---,0.00,VWS V14.01,2013-10-07 10:53:00,
2013-10-07 03:58:00,58.7,28.2,30.12,ESE,105,0.0,0.0,31,0.00,,---,0.00,VWS V14.01,2013-10-07 10:58:00,
2013-10-07 04:03:00,58.8,25.8,30.12,ENE,59,0.0,5.0,28,0.00,,---,0.00,VWS V14.01,2013-10-07 11:03:00,
2013-10-07 04:08:00,59.2,26.1,30.11,NE,46,0.0,1.0,28,0.00,,---,0.00,VWS V14.01,2013-10-07 11:08:00,
2013-10-07 04:13:00,59.5,28.1,30.11,NE,46,0.0,0.0,30,0.00,,---,0.00,VWS V14.01,2013-10-07 11:13:00,
2013-10-07 04:18:00,59.4,27.2,30.11,NE,46,0.0,0.0,29,0.00,,---,0.00,VWS V14.01,2013-10-07 11:18:00,
2013-10-07 04:23:00,59.1,26.9,30.11,NE,46,0.0,0.0,29,0.00,,---,0.00,VWS V14.01,2013-10-07 11:23:00,
2013-10-07 04:28:00,58.4,25.5,30.11,NE,46,0.0,0.0,28,0.00,,---,0.00,VWS V14.01,2013-10-07 11:28:00,
2013-10-07 04:33:00,57.9,25.9,30.11,NE,46,0.0,0.0,29,0.00,,---,0.00,VWS V14.01,2013-10-07 11:33:00,
2013-10-07 04:38:00,57.6,26.4,30.12,NE,46,0.0,0.0,30,0.00,,---,0.00,VWS V14.01,2013-10-07 11:38:00,
2013-10-07 04:43:00,57.1,25.2,30.11,NE,46,0.0,0.0,29,0.00,,---,0.00,VWS V14.01,2013-10-07 11:43:00,
2013-10-07 04:48:00,57.3,26.2,30.12,NE,46,0.0,0.0,30,0.00,,---,0.00,VWS V14.01,2013-10-07 11:48:00,
2013-10-07 04:53:00,57.3,26.2,30.12,NE,46,0.0,0.0,30,0.00,,---,0.00,VWS V14.01,2013-10-07 11:53:00,
2013-10-07 04:58:00,57.1,24.3,30.12,NE,46,0.0,0.0,28,0.00,,---,0.00,VWS V14.01,2013-10-07 11:58:00,
2013-10-07 05:03:00,57.0,24.2,30.11,NE,46,0.0,0.0,28,0.00,,---,0.00,VWS V14.01,2013-10-07 12:03:00,
2013-10-07 05:08:00,57.1,26.0,30.12,NE,46,0.0,0.0,30,0.00,,---,0.00,VWS V14.01,2013-10-07 12:08:00,
2013-10-07 05:13:00,57.0,27.5,30.12,NE,46,0.0,0.0,32,0.00,,---,0.00,VWS V14.01,2013-10-07 12:13:00,
2013-10-07 05:18:00,57.1,27.5,30.12,NE,43,0.0,0.0,32,0.00,,---,0.00,VWS V14.01,2013-10-07 12:18:00,
2013-10-07 05:23:00,57.0,25.1,30.12,NE,43,0.0,0.0,29,0.00,,---,0.00,VWS V14.01,2013-10-07 12:23:00,
2013-10-07 05:28:00,57.1,25.2,30.12,NE,43,0.0,0.0,29,0.00,,---,0.00,VWS V14.01,2013-10-07 12:28:00,
2013-10-07 05:33:00,56.9,23.3,30.12,NE,43,0.0,0.0,27,0.00,,---,0.00,VWS V14.01,2013-10-07 12:33:00,
2013-10-07 05:38:00,57.0,25.1,30.12,NE,43,0.0,0.0,29,0.00,,---,0.00,VWS V14.01,2013-10-07 12:38:00,
2013-10-07 05:43:00,56.7,24.8,30.12,NE,43,0.0,0.0,29,0.00,,---,0.00,VWS V14.01,2013-10-07 12:43:00,
2013-10-07 05:48:00,56.4,23.7,30.12,NE,43,0.0,0.0,28,0.00,,---,0.00,VWS V14.01,2013-10-07 12:48:00,
2013-10-07 05:53:00,56.4,25.4,30.12,NE,43,0.0,0.0,30,0.00,,---,0.00,VWS V14.01,2013-10-07 12:53:00,
2013-10-07 05:58:00,56.3,24.5,30.12,NE,43,0.0,0.0,29,0.00,,---,0.00,VWS V14.01,2013-10-07 12:58:00,
2013-10-07 06:03:00,56.1,25.9,30.12,NE,43,0.0,0.0,31,0.00,,---,0.00,VWS V14.01,2013-10-07 13:03:00,
2013-10-07 06:08:00,55.9,26.5,30.12,NE,43,0.0,0.0,32,0.00,,---,0.00,VWS V14.01,2013-10-07 13:08:00,
2013-10-07 06:13:00,55.5,25.4,30.12,NE,43,0.0,0.0,31,0.00,,---,0.00,VWS V14.01,2013-10-07 13:13:00,
2013-10-07 06:18:00,55.2,26.6,30.12,NE,43,0.0,0.0,33,0.00,,---,0.00,VWS V14.01,2013-10-07 13:18:00,
2013-10-07 06:23:00,55.1,26.5,30.12,NE,43,0.0,0.0,33,0.00,,---,0.00,VWS V14.01,2013-10-07 13:23:00,
2013-10-07 06:28:00,55.1,24.2,30.12,NE,43,0.0,0.0,30,0.00,,---,0.00,VWS V14.01,2013-10-07 13:28:00,
2013-10-07 06:33:00,55.2,28.0,30.12,NE,43,0.0,0.0,35,0.00,,---,0.00,VWS V14.01,2013-10-07 13:33:00,
2013-10-07 06:38:00,55.1,27.3,30.12,NE,43,0.0,0.0,34,0.00,,---,0.00,VWS V14.01,2013-10-07 13:38:00,
2013-10-07 06:43:00,55.4,27.5,30.13,NE,43,0.0,0.0,34,0.00,,---,0.00,VWS V14.01,2013-10-07 13:43:00,
2013-10-07 06:48:00,55.9,26.5,30.13,NE,43,0.0,0.0,32,0.00,,---,0.00,VWS V14.01,2013-10-07 13:48:00,
2013-10-07 06:53:00,56.5,28.5,30.13,NE,43,0.0,0.0,34,0.00,,---,0.00,VWS V14.01,2013-10-07 13:53:00,
2013-10-07 06:58:00,57.4,27.8,30.13,NE,42,0.0,0.0,32,0.00,,---,0.00,VWS V14.01,2013-10-07 13:58:00,
2013-10-07 07:03:00,58.1,27.6,30.13,NNE,30,0.0,0.0,31,0.00,,---,0.00,VWS V14.01,2013-10-07 14:03:00,
2013-10-07 07:08:00,58.7,29.7,30.13,NNE,20,0.0,0.0,33,0.00,,---,0.00,VWS V14.01,2013-10-07 14:08:00,
2013-10-07 07:13:00,59.5,30.4,30.13,NNE,19,0.0,0.0,33,0.00,,---,0.00,VWS V14.01,2013-10-07 14:13:00,
2013-10-07 07:18:00,60.0,31.6,30.13,NNE,19,0.0,0.0,34,0.00,,---,0.00,VWS V14.01,2013-10-07 14:18:00,
2013-10-07 07:23:00,61.0,33.2,30.13,NNE,19,0.0,0.0,35,0.00,,---,0.00,VWS V14.01,2013-10-07 14:23:00,
2013-10-07 07:28:00,61.8,33.2,30.13,NNE,19,0.0,0.0,34,0.00,,---,0.00,VWS V14.01,2013-10-07 14:28:00,
2013-10-07 07:33:00,63.0,34.9,30.13,NNE,19,0.0,0.0,35,0.00,,---,0.00,VWS V14.01,2013-10-07 14:33:00,
2013-10-07 07:38:00,64.2,33.8,30.13,NNE,19,0.0,0.0,32,0.00,,---,0.00,VWS V14.01,2013-10-07 14:38:00,
2013-10-07 07:43:00,64.6,34.9,30.14,NNE,19,0.0,0.0,33,0.00,,---,0.00,VWS V14.01,2013-10-07 14:43:00,
2013-10-07 07:48:00,65.0,33.7,30.14,NNE,19,0.0,0.0,31,0.00,,---,0.00,VWS V14.01,2013-10-07 14:48:00,
2013-10-07 07:53:00,65.3,31.4,30.13,NNE,19,0.0,0.0,28,0.00,,---,0.00,VWS V14.01,2013-10-07 14:53:00,
2013-10-07 07:58:00,65.8,32.7,30.13,NNE,19,0.0,0.0,29,0.00,,---,0.00,VWS V14.01,2013-10-07 14:58:00,
2013-10-07 08:03:00,66.5,32.4,30.13,NNE,19,0.0,1.0,28,0.00,,---,0.00,VWS V14.01,2013-10-07 15:03:00,
2013-10-07 08:08:00,67.5,31.4,30.13,NNE,15,0.0,0.0,26,0.00,,---,0.00,VWS V14.01,2013-10-07 15:08:00,
2013-10-07 08:13:00,68.3,30.1,30.13,NNW,345,0.0,0.0,24,0.00,,---,0.00,VWS V14.01,2013-10-07 15:13:00,
2013-10-07 08:18:00,69.5,30.1,30.13,NNW,345,0.0,0.0,23,0.00,,---,0.00,VWS V14.01,2013-10-07 15:18:00,
2013-10-07 08:23:00,70.4,29.8,30.13,NNW,332,0.0,0.0,22,0.00,,---,0.00,VWS V14.01,2013-10-07 15:23:00,
2013-10-07 08:28:00,71.5,29.5,30.13,NNW,332,0.0,0.0,21,0.00,,---,0.00,VWS V14.01,2013-10-07 15:28:00,
2013-10-07 08:33:00,71.9,31.0,30.13,WNW,287,0.0,0.0,22,0.00,,---,0.00,VWS V14.01,2013-10-07 15:33:00,
2013-10-07 08:38:00,72.6,32.7,30.13,West,267,0.0,1.0,23,0.00,,---,0.00,VWS V14.01,2013-10-07 15:38:00,
2013-10-07 08:43:00,73.3,31.0,30.13,West,267,0.0,0.0,21,0.00,,---,0.00,VWS V14.01,2013-10-07 15:43:00,
2013-10-07 08:48:00,74.4,34.2,30.13,West,266,0.0,0.0,23,0.00,,---,0.00,VWS V14.01,2013-10-07 15:48:00,
2013-10-07 08:53:00,75.1,33.7,30.13,West,266,0.0,0.0,22,0.00,,---,0.00,VWS V14.01,2013-10-07 15:53:00,
2013-10-07 08:58:00,75.7,35.3,30.13,NW,310,0.0,2.0,23,0.00,,---,0.00,VWS V14.01,2013-10-07 15:58:00,
2013-10-07 09:03:00,76.1,34.5,30.13,NW,310,0.0,0.0,22,0.00,,---,0.00,VWS V14.01,2013-10-07 16:03:00,
2013-10-07 09:08:00,76.5,34.9,30.13,WNW,284,0.0,1.0,22,0.00,,---,0.00,VWS V14.01,2013-10-07 16:08:00,
2013-10-07 09:13:00,77.6,34.6,30.13,West,280,0.0,0.0,21,0.00,,---,0.00,VWS V14.01,2013-10-07 16:13:00,
2013-10-07 09:18:00,78.5,34.1,30.13,West,267,0.0,1.0,20,0.00,,---,0.00,VWS V14.01,2013-10-07 16:18:00,
2013-10-07 09:23:00,79.2,34.7,30.13,WNW,294,0.0,8.0,20,0.00,,---,0.00,VWS V14.01,2013-10-07 16:23:00,
2013-10-07 09:28:00,80.8,36.0,30.13,NW,321,0.0,2.0,20,0.00,,---,0.00,VWS V14.01,2013-10-07 16:28:00,
2013-10-07 09:33:00,82.1,34.4,30.13,WSW,255,0.0,1.0,18,0.00,,---,0.00,VWS V14.01,2013-10-07 16:33:00,
2013-10-07 09:38:00,82.2,33.1,30.13,West,259,0.0,1.0,17,0.00,,---,0.00,VWS V14.01,2013-10-07 16:38:00,
2013-10-07 09:43:00,82.6,33.4,30.12,SW,229,0.0,1.0,17,0.00,,---,0.00,VWS V14.01,2013-10-07 16:43:00,
2013-10-07 09:48:00,83.4,32.5,30.12,WSW,240,5.0,5.0,16,0.00,,---,0.00,VWS V14.01,2013-10-07 16:48:00,
2013-10-07 09:53:00,84.0,31.4,30.12,WNW,289,0.0,1.0,15,0.00,,---,0.00,VWS V14.01,2013-10-07 16:53:00,
2013-10-07 09:58:00,84.7,32.0,30.12,West,265,0.0,6.0,15,0.00,,---,0.00,VWS V14.01,2013-10-07 16:58:00,
2013-10-07 10:03:00,85.1,32.3,30.12,WSW,257,0.0,1.0,15,0.00,,---,0.00,VWS V14.01,2013-10-07 17:03:00,
2013-10-07 10:10:00,85.2,32.4,30.12,SW,234,0.0,0.0,15,0.00,,---,0.00,VWS V14.01,2013-10-07 17:10:00,
2013-10-07 10:15:00,85.5,29.1,30.11,WSW,250,0.0,3.0,13,0.00,,---,0.00,VWS V14.01,2013-10-07 17:15:00,
2013-10-07 10:20:00,85.8,29.3,30.11,WSW,250,0.0,0.0,13,0.00,,---,0.00,VWS V14.01,2013-10-07 17:20:00,
2013-10-07 10:25:00,85.6,29.2,30.11,SSW,211,0.0,0.0,13,0.00,,---,0.00,VWS V14.01,2013-10-07 17:25:00,
2013-10-07 10:30:00,85.8,29.3,30.11,WSW,252,0.0,0.0,13,0.00,,---,0.00,VWS V14.01,2013-10-07 17:30:00,
2013-10-07 10:35:00,86.1,29.6,30.11,WNW,300,0.0,0.0,13,0.00,,---,0.00,VWS V14.01,2013-10-07 17:35:00,
2013-10-07 10:40:00,86.5,27.9,30.11,WSW,249,0.0,0.0,12,0.00,,---,0.00,VWS V14.01,2013-10-07 17:40:00,
2013-10-07 10:45:00,87.5,30.7,30.11,West,275,0.0,0.0,13,0.00,,---,0.00,VWS V14.01,2013-10-07 17:45:00,
2013-10-07 10:50:00,87.3,30.5,30.10,NE,35,0.0,0.0,13,0.00,,---,0.00,VWS V14.01,2013-10-07 17:50:00,
2013-10-07 10:55:00,87.5,28.7,30.10,WNW,289,0.0,0.0,12,0.00,,---,0.00,VWS V14.01,2013-10-07 17:55:00,
2013-10-07 11:00:00,88.0,32.9,30.10,East,80,0.0,0.0,14,0.00,,---,0.00,VWS V14.01,2013-10-07 18:00:00,
2013-10-07 11:05:00,88.6,31.5,30.10,NNE,20,0.0,0.0,13,0.00,,---,0.00,VWS V14.01,2013-10-07 18:05:00,
2013-10-07 11:10:00,88.2,31.2,30.10,ENE,65,0.0,0.0,13,0.00,,---,0.00,VWS V14.01,2013-10-07 18:10:00,
2013-10-07 11:15:00,88.9,33.6,30.10,NE,39,0.0,4.0,14,0.00,,---,0.00,VWS V14.01,2013-10-07 18:15:00,
2013-10-07 11:20:00,88.7,29.6,30.09,ENE,58,0.0,0.0,12,0.00,,---,0.00,VWS V14.01,2013-10-07 18:20:00,
2013-10-07 11:25:00,89.7,32.4,30.09,SSE,155,0.0,0.0,13,0.00,,---,0.00,VWS V14.01,2013-10-07 18:25:00,
2013-10-07 11:30:00,88.8,31.7,30.09,SW,227,0.0,0.0,13,0.00,,---,0.00,VWS V14.01,2013-10-07 18:30:00,
2013-10-07 11:35:00,89.2,32.0,30.09,SE,145,3.0,4.0,13,0.00,,---,0.00,VWS V14.01,2013-10-07 18:35:00,
2013-10-07 11:40:00,89.2,32.0,30.08,WSW,251,0.0,3.0,13,0.00,,---,0.00,VWS V14.01,2013-10-07 18:40:00,
2013-10-07 11:45:00,89.7,32.4,30.08,SSE,147,4.0,4.0,13,0.00,,---,0.00,VWS V14.01,2013-10-07 18:45:00,
2013-10-07 11:50:00,89.9,34.4,30.08,SE,128,3.0,3.0,14,0.00,,---,0.00,VWS V14.01,2013-10-07 18:50:00,
2013-10-07 11:55:00,89.7,32.4,30.08,NE,42,3.0,4.0,13,0.00,,---,0.00,VWS V14.01,2013-10-07 18:55:00,
2013-10-07 12:00:00,89.2,32.0,30.07,NNW,346,0.0,0.0,13,0.00,,---,0.00,VWS V14.01,2013-10-07 19:00:00,
2013-10-07 12:05:00,89.9,36.1,30.07,ENE,67,0.0,1.0,15,0.00,,---,0.00,VWS V14.01,2013-10-07 19:05:00,
2013-10-07 12:09:00,90.6,36.7,30.07,ESE,102,2.0,2.0,15,0.00,,---,0.00,VWS V14.01,2013-10-07 19:09:00,
2013-10-07 12:14:00,90.5,34.8,30.07,SE,142,0.0,0.0,14,0.00,,---,0.00,VWS V14.01,2013-10-07 19:14:00,
2013-10-07 12:19:00,90.2,34.6,30.06,South,185,4.0,4.0,14,0.00,,---,0.00,VWS V14.01,2013-10-07 19:19:00,
2013-10-07 12:24:00,90.2,34.6,30.06,SW,232,0.0,0.0,14,0.00,,---,0.00,VWS V14.01,2013-10-07 19:24:00,
2013-10-07 12:29:00,90.8,35.1,30.06,WSW,239,4.0,4.0,14,0.00,,---,0.00,VWS V14.01,2013-10-07 19:29:00,
2013-10-07 12:34:00,91.5,35.6,30.06,SSW,196,4.0,4.0,14,0.00,,---,0.00,VWS V14.01,2013-10-07 19:34:00,
2013-10-07 12:39:00,91.3,35.5,30.05,WSW,246,0.0,0.0,14,0.00,,---,0.00,VWS V14.01,2013-10-07 19:39:00,
2013-10-07 12:44:00,91.1,33.5,30.05,SW,226,6.0,6.0,13,0.00,,---,0.00,VWS V14.01,2013-10-07 19:44:00,
2013-10-07 12:49:00,91.4,33.7,30.05,WSW,254,2.0,2.0,13,0.00,,---,0.00,VWS V14.01,2013-10-07 19:49:00,
2013-10-07 12:54:00,90.8,33.2,30.04,West,277,0.0,0.0,13,0.00,,---,0.00,VWS V14.01,2013-10-07 19:54:00,
2013-10-07 12:59:00,91.0,35.2,30.04,NNW,346,0.0,0.0,14,0.00,,---,0.00,VWS V14.01,2013-10-07 19:59:00,
2013-10-07 13:04:00,91.2,33.5,30.04,SSW,210,0.0,0.0,13,0.00,,---,0.00,VWS V14.01,2013-10-07 20:04:00,
2013-10-07 13:09:00,90.7,35.0,30.04,SW,214,0.0,7.0,14,0.00,,---,0.00,VWS V14.01,2013-10-07 20:09:00,
2013-10-07 13:14:00,90.9,35.2,30.04,WSW,250,0.0,6.0,14,0.00,,---,0.00,VWS V14.01,2013-10-07 20:14:00,
2013-10-07 13:19:00,91.5,31.8,30.03,SSE,163,0.0,10.0,12,0.00,,---,0.00,VWS V14.01,2013-10-07 20:19:00,
2013-10-07 13:24:00,90.9,33.3,30.03,SW,226,2.0,3.0,13,0.00,,---,0.00,VWS V14.01,2013-10-07 20:24:00,
2013-10-07 13:29:00,90.3,32.8,30.03,WSW,246,0.0,4.0,13,0.00,,---,0.00,VWS V14.01,2013-10-07 20:29:00,
2013-10-07 13:34:00,90.5,31.0,30.03,South,182,5.0,5.0,12,0.00,,---,0.00,VWS V14.01,2013-10-07 20:34:00,
2013-10-07 13:39:00,90.4,30.9,30.03,SSW,193,0.0,8.0,12,0.00,,---,0.00,VWS V14.01,2013-10-07 20:39:00,
2013-10-07 13:44:00,91.5,33.8,30.03,WSW,242,3.0,7.0,13,0.00,,---,0.00,VWS V14.01,2013-10-07 20:44:00,
2013-10-07 13:49:00,91.6,33.9,30.03,SE,137,0.0,7.0,13,0.00,,---,0.00,VWS V14.01,2013-10-07 20:49:00,
2013-10-07 13:54:00,91.7,35.8,30.03,NE,47,0.0,4.0,14,0.00,,---,0.00,VWS V14.01,2013-10-07 20:54:00,
2013-10-07 13:59:00,91.9,32.1,30.03,ESE,122,0.0,3.0,12,0.00,,---,0.00,VWS V14.01,2013-10-07 20:59:00,
2013-10-07 14:04:00,92.3,32.4,30.03,WSW,257,1.0,6.0,12,0.00,,---,0.00,VWS V14.01,2013-10-07 21:04:00,
2013-10-07 14:09:00,92.7,32.7,30.02,WNW,296,0.0,4.0,12,0.00,,---,0.00,VWS V14.01,2013-10-07 21:09:00,
2013-10-07 14:14:00,92.6,30.5,30.02,WNW,294,0.0,4.0,11,0.00,,---,0.00,VWS V14.01,2013-10-07 21:14:00,
2013-10-07 14:19:00,91.8,29.9,30.02,NNE,30,0.0,4.0,11,0.00,,---,0.00,VWS V14.01,2013-10-07 21:19:00,
2013-10-07 14:24:00,91.6,31.9,30.02,NNE,19,1.0,6.0,12,0.00,,---,0.00,VWS V14.01,2013-10-07 21:24:00,
2013-10-07 14:29:00,90.8,31.2,30.02,NNE,15,2.0,9.0,12,0.00,,---,0.00,VWS V14.01,2013-10-07 21:29:00,
2013-10-07 14:34:00,90.8,33.2,30.02,ENE,68,0.0,6.0,13,0.00,,---,0.00,VWS V14.01,2013-10-07 21:34:00,
2013-10-07 14:39:00,91.0,33.4,30.02,NNE,15,0.0,3.0,13,0.00,,---,0.00,VWS V14.01,2013-10-07 21:39:00,
2013-10-07 14:44:00,91.2,33.5,30.02,North,360,0.0,5.0,13,0.00,,---,0.00,VWS V14.01,2013-10-07 21:44:00,
2013-10-07 14:49:00,91.0,33.4,30.01,NNE,23,1.0,4.0,13,0.00,,---,0.00,VWS V14.01,2013-10-07 21:49:00,
2013-10-07 14:54:00,90.8,33.2,30.01,ENE,57,0.0,3.0,13,0.00,,---,0.00,VWS V14.01,2013-10-07 21:54:00,
2013-10-07 14:59:00,90.7,35.0,30.01,East,86,0.0,6.0,14,0.00,,---,0.00,VWS V14.01,2013-10-07 21:59:00,
2013-10-07 15:04:00,90.7,33.2,30.01,NW,321,0.0,2.0,13,0.00,,---,0.00,VWS V14.01,2013-10-07 22:04:00,
2013-10-07 15:09:00,90.8,33.2,30.01,North,360,0.0,3.0,13,0.00,,---,0.00,VWS V14.01,2013-10-07 22:09:00,
2013-10-07 15:14:00,90.4,36.5,30.00,ENE,74,1.0,3.0,15,0.00,,---,0.00,VWS V14.01,2013-10-07 22:14:00,
2013-10-07 15:19:00,90.5,33.0,30.00,ESE,105,0.0,4.0,13,0.00,,---,0.00,VWS V14.01,2013-10-07 22:19:00,
2013-10-07 15:24:00,90.6,33.1,30.00,ENE,58,0.0,3.0,13,0.00,,---,0.00,VWS V14.01,2013-10-07 22:24:00,
2013-10-07 15:29:00,90.7,35.0,30.00,ENE,63,1.0,6.0,14,0.00,,---,0.00,VWS V14.01,2013-10-07 22:29:00,
2013-10-07 15:34:00,90.8,33.2,30.00,East,88,3.0,8.0,13,0.00,,---,0.00,VWS V14.01,2013-10-07 22:34:00,
2013-10-07 15:39:00,90.9,33.3,30.00,East,90,2.0,4.0,13,0.00,,---,0.00,VWS V14.01,2013-10-07 22:39:00,
2013-10-07 15:44:00,90.6,33.1,30.00,ESE,105,0.0,5.0,13,0.00,,---,0.00,VWS V14.01,2013-10-07 22:44:00,
2013-10-07 15:49:00,90.4,32.9,29.99,East,86,0.0,1.0,13,0.00,,---,0.00,VWS V14.01,2013-10-07 22:49:00,
2013-10-07 15:54:00,90.5,33.0,29.99,East,88,0.0,3.0,13,0.00,,---,0.00,VWS V14.01,2013-10-07 22:54:00,
2013-10-07 15:59:00,90.8,33.2,29.99,NNE,29,3.0,3.0,13,0.00,,---,0.00,VWS V14.01,2013-10-07 22:59:00,
2013-10-07 16:04:00,90.9,35.2,29.99,NNW,340,0.0,4.0,14,0.00,,---,0.00,VWS V14.01,2013-10-07 23:04:00,
2013-10-07 16:09:00,90.8,33.2,29.99,NNW,340,0.0,1.0,13,0.00,,---,0.00,VWS V14.01,2013-10-07 23:09:00,
2013-10-07 16:14:00,91.2,33.5,29.99,NNE,13,0.0,1.0,13,0.00,,---,0.00,VWS V14.01,2013-10-07 23:14:00,
2013-10-07 16:19:00,91.5,35.6,29.99,North,9,0.0,1.0,14,0.00,,---,0.00,VWS V14.01,2013-10-07 23:19:00,
2013-10-07 16:24:00,91.7,33.9,29.99,NNE,22,0.0,1.0,13,0.00,,---,0.00,VWS V14.01,2013-10-07 23:24:00,
2013-10-07 16:29:00,91.7,35.8,29.99,NNE,24,0.0,1.0,14,0.00,,---,0.00,VWS V14.01,2013-10-07 23:29:00,
2013-10-07 16:34:00,91.4,37.3,29.98,East,84,0.0,2.0,15,0.00,,---,0.00,VWS V14.01,2013-10-07 23:34:00,
2013-10-07 16:39:00,91.1,35.3,29.99,East,84,0.0,1.0,14,0.00,,---,0.00,VWS V14.01,2013-10-07 23:39:00,
2013-10-07 16:44:00,90.9,35.2,29.99,ENE,69,0.0,2.0,14,0.00,,---,0.00,VWS V14.01,2013-10-07 23:44:00,
2013-10-07 16:49:00,90.6,33.1,29.98,NE,49,0.0,3.0,13,0.00,,---,0.00,VWS V14.01,2013-10-07 23:49:00,
2013-10-07 16:54:00,90.4,34.8,29.98,ENE,67,0.0,2.0,14,0.00,,---,0.00,VWS V14.01,2013-10-07 23:54:00,
2013-10-07 16:59:00,90.2,32.8,29.98,ENE,67,0.0,0.0,13,0.00,,---,0.00,VWS V14.01,2013-10-07 23:59:00,
2013-10-07 17:04:00,90.2,32.8,29.98,ENE,67,0.0,0.0,13,0.00,,---,0.00,VWS V14.01,2013-10-08 00:04:00,
2013-10-07 17:09:00,90.3,32.8,29.98,ENE,67,0.0,0.0,13,0.00,,---,0.00,VWS V14.01,2013-10-08 00:09:00,
2013-10-07 17:14:00,90.4,36.5,29.98,ENE,67,0.0,0.0,15,0.00,,---,0.00,VWS V14.01,2013-10-08 00:14:00,
2013-10-07 17:19:00,89.8,36.0,29.99,ENE,59,0.0,1.0,15,0.00,,---,0.00,VWS V14.01,2013-10-08 00:19:00,
2013-10-07 17:24:00,89.0,33.7,29.99,WNW,298,0.0,4.0,14,0.00,,---,0.00,VWS V14.01,2013-10-08 00:24:00,
2013-10-07 17:29:00,88.3,31.3,29.99,West,268,0.0,3.0,13,0.00,,---,0.00,VWS V14.01,2013-10-08 00:29:00,
2013-10-07 17:34:00,87.7,28.9,29.99,West,271,0.0,5.0,12,0.00,,---,0.00,VWS V14.01,2013-10-08 00:34:00,
2013-10-07 17:39:00,87.3,30.5,29.99,WNW,284,0.0,4.0,13,0.00,,---,0.00,VWS V14.01,2013-10-08 00:39:00,
2013-10-07 17:44:00,86.9,28.2,29.99,West,266,0.0,7.0,12,0.00,,---,0.00,VWS V14.01,2013-10-08 00:44:00,
2013-10-07 17:49:00,86.6,28.0,29.99,West,269,0.0,8.0,12,0.00,,---,0.00,VWS V14.01,2013-10-08 00:49:00,
2013-10-07 17:54:00,86.3,27.8,29.98,WNW,287,0.0,4.0,12,0.00,,---,0.00,VWS V14.01,2013-10-08 00:54:00,
2013-10-07 17:59:00,85.9,29.4,29.98,West,273,0.0,1.0,13,0.00,,---,0.00,VWS V14.01,2013-10-08 00:59:00,
2013-10-07 18:04:00,85.4,29.0,29.98,West,281,0.0,2.0,13,0.00,,---,0.00,VWS V14.01,2013-10-08 01:04:00,
2013-10-07 18:09:00,85.1,28.8,29.98,WNW,285,0.0,6.0,13,0.00,,---,0.00,VWS V14.01,2013-10-08 01:09:00,
2013-10-07 18:14:00,84.8,28.5,29.98,West,268,0.0,1.0,13,0.00,,---,0.00,VWS V14.01,2013-10-08 01:14:00,
2013-10-07 18:19:00,84.3,30.0,29.98,WNW,286,0.0,1.0,14,0.00,,---,0.00,VWS V14.01,2013-10-08 01:19:00,
2013-10-07 18:24:00,83.8,29.6,29.98,WNW,286,0.0,0.0,14,0.00,,---,0.00,VWS V14.01,2013-10-08 01:24:00,
2013-10-07 18:29:00,83.1,29.0,29.99,WNW,285,0.0,3.0,14,0.00,,---,0.00,VWS V14.01,2013-10-08 01:29:00,
2013-10-07 18:34:00,82.9,30.6,29.98,WNW,290,0.0,3.0,15,0.00,,---,0.00,VWS V14.01,2013-10-08 01:34:00,
2013-10-07 18:39:00,82.8,30.5,29.99,West,281,0.0,4.0,15,0.00,,---,0.00,VWS V14.01,2013-10-08 01:39:00,
2013-10-07 18:44:00,82.9,28.9,29.99,West,280,0.0,1.0,14,0.00,,---,0.00,VWS V14.01,2013-10-08 01:44:00,
2013-10-07 18:49:00,83.0,30.6,29.99,West,280,0.0,0.0,15,0.00,,---,0.00,VWS V14.01,2013-10-08 01:49:00,
2013-10-07 18:54:00,82.9,30.6,29.99,West,280,0.0,0.0,15,0.00,,---,0.00,VWS V14.01,2013-10-08 01:54:00,
2013-10-07 18:59:00,82.5,31.8,29.99,West,280,0.0,0.0,16,0.00,,---,0.00,VWS V14.01,2013-10-08 01:59:00,
2013-10-07 19:04:00,81.8,31.3,29.99,West,280,0.0,0.0,16,0.00,,---,0.00,VWS V14.01,2013-10-08 02:04:00,
2013-10-07 19:09:00,80.8,30.5,29.99,West,280,0.0,0.0,16,0.00,,---,0.00,VWS V14.01,2013-10-08 02:09:00,
2013-10-07 19:14:00,79.9,31.2,30.00,East,86,0.0,3.0,17,0.00,,---,0.00,VWS V14.01,2013-10-08 02:14:00,
2013-10-07 19:19:00,79.6,32.4,30.00,East,84,0.0,0.0,18,0.00,,---,0.00,VWS V14.01,2013-10-08 02:19:00,
2013-10-07 19:24:00,79.4,30.8,30.00,East,84,0.0,3.0,17,0.00,,---,0.00,VWS V14.01,2013-10-08 02:24:00,
2013-10-07 19:29:00,79.6,31.0,30.00,East,80,0.0,1.0,17,0.00,,---,0.00,VWS V14.01,2013-10-08 02:29:00,
2013-10-07 19:34:00,79.7,31.1,30.00,East,80,0.0,1.0,17,0.00,,---,0.00,VWS V14.01,2013-10-08 02:34:00,
2013-10-07 19:39:00,79.6,31.0,30.00,East,80,0.0,0.0,17,0.00,,---,0.00,VWS V14.01,2013-10-08 02:39:00,
2013-10-07 19:44:00,79.3,32.2,30.01,East,80,0.0,0.0,18,0.00,,---,0.00,VWS V14.01,2013-10-08 02:44:00,
2013-10-07 19:49:00,78.8,31.8,30.00,East,80,0.0,1.0,18,0.00,,---,0.00,VWS V14.01,2013-10-08 02:49:00,
2013-10-07 19:54:00,78.4,31.4,30.01,East,80,0.0,0.0,18,0.00,,---,0.00,VWS V14.01,2013-10-08 02:54:00,
2013-10-07 19:59:00,77.7,32.2,30.01,East,80,0.0,0.0,19,0.00,,---,0.00,VWS V14.01,2013-10-08 02:59:00,
2013-10-07 20:04:00,77.1,31.7,30.01,East,80,0.0,0.0,19,0.00,,---,0.00,VWS V14.01,2013-10-08 03:04:00,
2013-10-07 20:09:00,76.6,31.3,30.01,East,80,0.0,0.0,19,0.00,,---,0.00,VWS V14.01,2013-10-08 03:09:00,
2013-10-07 20:14:00,76.2,32.2,30.01,East,80,0.0,0.0,20,0.00,,---,0.00,VWS V14.01,2013-10-08 03:14:00,
2013-10-07 20:19:00,75.8,31.9,30.01,East,80,0.0,0.0,20,0.00,,---,0.00,VWS V14.01,2013-10-08 03:19:00,
2013-10-07 20:24:00,75.8,31.9,30.01,East,80,0.0,1.0,20,0.00,,---,0.00,VWS V14.01,2013-10-08 03:24:00,
2013-10-07 20:29:00,75.8,30.6,30.01,ENE,74,0.0,0.0,19,0.00,,---,0.00,VWS V14.01,2013-10-08 03:29:00,
2013-10-07 20:34:00,75.7,31.8,30.01,ENE,71,0.0,0.0,20,0.00,,---,0.00,VWS V14.01,2013-10-08 03:34:00,
2013-10-07 20:39:00,75.3,32.7,30.01,North,355,0.0,1.0,21,0.00,,---,0.00,VWS V14.01,2013-10-08 03:39:00,
2013-10-07 20:44:00,74.9,34.6,30.01,North,355,0.0,0.0,23,0.00,,---,0.00,VWS V14.01,2013-10-08 03:44:00,
2013-10-07 20:49:00,74.8,32.3,30.01,North,5,0.0,0.0,21,0.00,,---,0.00,VWS V14.01,2013-10-08 03:49:00,
2013-10-07 20:54:00,74.6,32.1,30.01,North,5,0.0,0.0,21,0.00,,---,0.00,VWS V14.01,2013-10-08 03:54:00,
2013-10-07 20:59:00,74.4,30.8,30.02,North,5,0.0,0.0,20,0.00,,---,0.00,VWS V14.01,2013-10-08 03:59:00,
2013-10-07 21:01:00,74.2,31.8,30.01,North,5,0.0,0.0,21,0.00,,---,0.00,VWS V14.01,2013-10-08 04:01:00,
2013-10-07 21:06:00,73.8,31.5,30.02,North,5,0.0,0.0,21,0.00,,---,0.00,VWS V14.01,2013-10-08 04:06:00,
2013-10-07 21:11:00,73.5,31.2,30.02,North,5,0.0,0.0,21,0.00,,---,0.00,VWS V14.01,2013-10-08 04:11:00,
2013-10-07 21:16:00,73.4,31.1,30.02,North,5,0.0,0.0,21,0.00,,---,0.00,VWS V14.01,2013-10-08 04:16:00,
2013-10-07 21:21:00,73.1,33.1,30.02,North,5,0.0,0.0,23,0.00,,---,0.00,VWS V14.01,2013-10-08 04:21:00,
2013-10-07 21:26:00,72.2,33.4,30.02,ENE,57,0.0,1.0,24,0.00,,---,0.00,VWS V14.01,2013-10-08 04:26:00,
2013-10-07 21:31:00,71.9,33.2,30.02,ENE,57,0.0,0.0,24,0.00,,---,0.00,VWS V14.01,2013-10-08 04:31:00,
2013-10-07 21:36:00,72.0,34.3,30.02,NE,56,0.0,0.0,25,0.00,,---,0.00,VWS V14.01,2013-10-08 04:36:00,
2013-10-07 21:41:00,71.9,34.2,30.02,NE,56,0.0,0.0,25,0.00,,---,0.00,VWS V14.01,2013-10-08 04:41:00,
2013-10-07 21:46:00,71.3,34.7,30.02,NE,56,0.0,0.0,26,0.00,,---,0.00,VWS V14.01,2013-10-08 04:46:00,
2013-10-07 21:51:00,70.9,32.3,30.02,ENE,57,0.0,0.0,24,0.00,,---,0.00,VWS V14.01,2013-10-08 04:51:00,
2013-10-07 21:56:00,70.7,35.1,30.02,NE,56,0.0,0.0,27,0.00,,---,0.00,VWS V14.01,2013-10-08 04:56:00,
2013-10-07 22:01:00,70.2,34.7,30.02,NE,56,0.0,0.0,27,0.00,,---,0.00,VWS V14.01,2013-10-08 05:01:00,
2013-10-07 22:06:00,70.2,32.8,30.02,ENE,57,0.0,0.0,25,0.00,,---,0.00,VWS V14.01,2013-10-08 05:06:00,
2013-10-07 22:11:00,70.3,34.8,30.02,NE,56,0.0,0.0,27,0.00,,---,0.00,VWS V14.01,2013-10-08 05:11:00,
2013-10-07 22:16:00,69.7,34.3,30.02,ENE,59,0.0,0.0,27,0.00,,---,0.00,VWS V14.01,2013-10-08 05:16:00,
2013-10-07 22:21:00,69.1,32.8,30.02,ENE,59,0.0,0.0,26,0.00,,---,0.00,VWS V14.01,2013-10-08 05:21:00,
2013-10-07 22:26:00,68.8,34.4,30.02,ENE,59,0.0,0.0,28,0.00,,---,0.00,VWS V14.01,2013-10-08 05:26:00,
2013-10-07 22:31:00,68.5,35.0,30.02,ENE,59,0.0,0.0,29,0.00,,---,0.00,VWS V14.01,2013-10-08 05:31:00,
2013-10-07 22:36:00,68.3,34.0,30.02,ENE,59,0.0,1.0,28,0.00,,---,0.00,VWS V14.01,2013-10-08 05:36:00,
2013-10-07 22:41:00,68.8,35.3,30.02,ENE,59,0.0,0.0,29,0.00,,---,0.00,VWS V14.01,2013-10-08 05:41:00,
2013-10-07 22:46:00,68.8,36.1,30.02,ENE,59,0.0,0.0,30,0.00,,---,0.00,VWS V14.01,2013-10-08 05:46:00,
2013-10-07 22:51:00,68.8,37.0,30.02,ENE,59,0.0,0.0,31,0.00,,---,0.00,VWS V14.01,2013-10-08 05:51:00,
2013-10-07 22:56:00,68.2,37.2,30.02,ENE,59,0.0,0.0,32,0.00,,---,0.00,VWS V14.01,2013-10-08 05:56:00,
2013-10-07 23:01:00,67.6,35.9,30.02,ENE,59,0.0,0.0,31,0.00,,---,0.00,VWS V14.01,2013-10-08 06:01:00,
2013-10-07 23:06:00,67.2,33.0,30.01,ENE,59,0.0,1.0,28,0.00,,---,0.00,VWS V14.01,2013-10-08 06:06:00,
2013-10-07 23:11:00,67.6,32.5,30.01,East,80,0.0,0.0,27,0.00,,---,0.00,VWS V14.01,2013-10-08 06:11:00,
2013-10-07 23:16:00,68.3,32.1,30.01,East,81,0.0,0.0,26,0.00,,---,0.00,VWS V14.01,2013-10-08 06:16:00,
2013-10-07 23:21:00,68.7,31.5,30.01,East,81,0.0,0.0,25,0.00,,---,0.00,VWS V14.01,2013-10-08 06:21:00,
2013-10-07 23:26:00,68.7,31.5,30.01,East,81,0.0,0.0,25,0.00,,---,0.00,VWS V14.01,2013-10-08 06:26:00,
2013-10-07 23:31:00,68.5,33.2,30.01,East,81,0.0,0.0,27,0.00,,---,0.00,VWS V14.01,2013-10-08 06:31:00,
2013-10-07 23:36:00,68.1,32.0,30.01,ESE,108,0.0,0.0,26,0.00,,---,0.00,VWS V14.01,2013-10-08 06:36:00,
2013-10-07 23:41:00,67.9,32.7,30.01,ESE,115,0.0,0.0,27,0.00,,---,0.00,VWS V14.01,2013-10-08 06:41:00,
2013-10-07 23:46:00,67.6,31.5,30.01,ESE,115,0.0,0.0,26,0.00,,---,0.00,VWS V14.01,2013-10-08 06:46:00,
2013-10-07 23:51:00,67.3,32.2,30.02,ESE,115,0.0,0.0,27,0.00,,---,0.00,VWS V14.01,2013-10-08 06:51:00,
2013-10-07 23:56:00,67.0,31.0,30.02,ESE,115,0.0,0.0,26,0.00,,---,0.00,VWS V14.01,2013-10-08 06:56:00,